sensor_id;sensor_type;location;lat;lon;timestamp;pressure;altitude;pressure_sealevel;temperature;humidity
68594;BME280;55563;52.416;13.548;2022-08-11T00:00:48;101962.28;;;18.73;58.69
68594;BME280;55563;52.416;13.548;2022-08-11T00:02:50;101976.75;;;18.62;59.22
68594;BME280;55563;52.416;13.548;2022-08-11T00:04:53;101977.06;;;18.60;58.96
68594;BME280;55563;52.416;13.548;2022-08-11T00:06:54;101972.66;;;18.41;59.93
68594;BME280;55563;52.416;13.548;2022-08-11T00:08:55;101976.88;;;18.42;59.86
68594;BME280;55563;52.416;13.548;2022-08-11T00:10:58;101971.75;;;18.16;61.05
68594;BME280;55563;52.416;13.548;2022-08-11T00:13:03;101967.50;;;18.15;61.02
68594;BME280;55563;52.416;13.548;2022-08-11T00:15:04;101975.81;;;18.04;61.29
68594;BME280;55563;52.416;13.548;2022-08-11T00:17:08;101974.72;;;18.10;61.81
68594;BME280;55563;52.416;13.548;2022-08-11T00:19:10;101966.28;;;17.98;62.20
68594;BME280;55563;52.416;13.548;2022-08-11T00:21:13;101970.78;;;18.02;62.39
68594;BME280;55563;52.416;13.548;2022-08-11T00:23:16;101966.09;;;18.23;61.67
68594;BME280;55563;52.416;13.548;2022-08-11T00:25:19;101973.81;;;18.24;61.79
68594;BME280;55563;52.416;13.548;2022-08-11T00:27:32;101981.00;;;18.24;61.96
68594;BME280;55563;52.416;13.548;2022-08-11T00:29:33;101975.22;;;18.17;61.41
68594;BME280;55563;52.416;13.548;2022-08-11T00:31:34;101970.81;;;17.97;62.57
68594;BME280;55563;52.416;13.548;2022-08-11T00:33:41;101972.28;;;18.13;61.36
68594;BME280;55563;52.416;13.548;2022-08-11T00:35:43;101971.78;;;18.11;61.04
68594;BME280;55563;52.416;13.548;2022-08-11T00:37:48;101969.88;;;18.17;60.84
68594;BME280;55563;52.416;13.548;2022-08-11T00:39:52;101968.53;;;18.19;60.36
68594;BME280;55563;52.416;13.548;2022-08-11T00:44:34;101982.63;;;18.20;60.31
68594;BME280;55563;52.416;13.548;2022-08-11T00:47:04;101974.41;;;18.16;60.94
68594;BME280;55563;52.416;13.548;2022-08-11T00:49:17;101972.78;;;18.20;60.95
68594;BME280;55563;52.416;13.548;2022-08-11T00:51:54;101971.63;;;17.93;61.60
68594;BME280;55563;52.416;13.548;2022-08-11T01:06:13;101987.94;;;17.76;63.38
68594;BME280;55563;52.416;13.548;2022-08-11T01:08:40;101973.34;;;17.58;62.70
68594;BME280;55563;52.416;13.548;2022-08-11T01:13:33;101976.28;;;17.52;63.08
68594;BME280;55563;52.416;13.548;2022-08-11T01:36:39;101993.38;;;17.30;64.19
68594;BME280;55563;52.416;13.548;2022-08-11T01:41:42;101985.19;;;17.12;64.84
68594;BME280;55563;52.416;13.548;2022-08-11T01:44:32;101989.13;;;17.24;64.50
68594;BME280;55563;52.416;13.548;2022-08-11T01:46:49;101986.22;;;17.26;64.67
68594;BME280;55563;52.416;13.548;2022-08-11T01:49:34;101985.19;;;17.07;65.41
68594;BME280;55563;52.416;13.548;2022-08-11T01:52:14;101983.91;;;16.69;66.39
68594;BME280;55563;52.416;13.548;2022-08-11T01:54:08;101982.81;;;16.60;67.16
68594;BME280;55563;52.416;13.548;2022-08-11T01:56:43;101980.97;;;16.60;66.81
68594;BME280;55563;52.416;13.548;2022-08-11T01:59:24;101982.81;;;16.80;66.03
68594;BME280;55563;52.416;13.548;2022-08-11T02:01:36;101984.66;;;16.94;65.51
68594;BME280;55563;52.416;13.548;2022-08-11T02:03:46;101983.09;;;16.83;66.37
68594;BME280;55563;52.416;13.548;2022-08-11T02:06:09;101987.63;;;16.73;66.53
68594;BME280;55563;52.416;13.548;2022-08-11T02:13:46;101980.97;;;16.80;65.75
68594;BME280;55563;52.416;13.548;2022-08-11T02:15:54;101973.81;;;16.71;66.38
68594;BME280;55563;52.416;13.548;2022-08-11T02:17:58;101979.91;;;16.71;65.91
68594;BME280;55563;52.416;13.548;2022-08-11T02:20:18;101975.13;;;16.83;65.79
68594;BME280;55563;52.416;13.548;2022-08-11T02:22:58;101977.25;;;16.76;65.94
68594;BME280;55563;52.416;13.548;2022-08-11T02:27:52;101972.97;;;16.50;67.30
68594;BME280;55563;52.416;13.548;2022-08-11T02:30:00;101972.44;;;16.33;67.87
68594;BME280;55563;52.416;13.548;2022-08-11T02:32:26;101975.88;;;16.23;68.13
68594;BME280;55563;52.416;13.548;2022-08-11T02:35:25;101970.59;;;16.43;67.41
68594;BME280;55563;52.416;13.548;2022-08-11T02:37:49;101977.50;;;16.60;66.84
68594;BME280;55563;52.416;13.548;2022-08-11T02:40:21;101966.06;;;16.44;67.31
68594;BME280;55563;52.416;13.548;2022-08-11T02:50:20;101958.91;;;16.34;67.94
68594;BME280;55563;52.416;13.548;2022-08-11T02:52:47;101964.22;;;16.39;67.55
68594;BME280;55563;52.416;13.548;2022-08-11T02:55:03;101958.63;;;16.46;67.24
68594;BME280;55563;52.416;13.548;2022-08-11T02:57:21;101965.00;;;16.50;67.34
68594;BME280;55563;52.416;13.548;2022-08-11T02:59:46;101965.28;;;16.48;67.17
68594;BME280;55563;52.416;13.548;2022-08-11T03:01:57;101959.97;;;16.43;67.41
68594;BME280;55563;52.416;13.548;2022-08-11T03:04:05;101961.56;;;16.29;68.74
68594;BME280;55563;52.416;13.548;2022-08-11T03:06:18;101969.44;;;15.99;70.34
68594;BME280;55563;52.416;13.548;2022-08-11T03:08:37;101970.94;;;15.69;71.41
68594;BME280;55563;52.416;13.548;2022-08-11T03:11:10;101964.19;;;15.47;72.69
68594;BME280;55563;52.416;13.548;2022-08-11T03:13:37;101964.19;;;15.47;72.69
68594;BME280;55563;52.416;13.548;2022-08-11T03:16:31;101961.75;;;15.97;70.42
68594;BME280;55563;52.416;13.548;2022-08-11T03:19:00;101962.78;;;15.81;71.10
68594;BME280;55563;52.416;13.548;2022-08-11T03:21:25;101965.69;;;15.85;70.74
68594;BME280;55563;52.416;13.548;2022-08-11T03:23:52;101963.25;;;15.63;72.37
68594;BME280;55563;52.416;13.548;2022-08-11T03:26:32;101966.47;;;15.80;70.89
68594;BME280;55563;52.416;13.548;2022-08-11T03:28:27;101969.16;;;15.90;70.87
68594;BME280;55563;52.416;13.548;2022-08-11T03:30:42;101962.50;;;15.88;70.78
68594;BME280;55563;52.416;13.548;2022-08-11T03:32:52;101975.19;;;15.70;71.54
68594;BME280;55563;52.416;13.548;2022-08-11T03:35:16;101971.50;;;15.77;71.47
68594;BME280;55563;52.416;13.548;2022-08-11T03:37:27;101970.44;;;15.83;70.95
68594;BME280;55563;52.416;13.548;2022-08-11T03:40:09;101969.16;;;15.85;70.87
68594;BME280;55563;52.416;13.548;2022-08-11T03:53:48;101965.41;;;15.81;71.20
68594;BME280;55563;52.416;13.548;2022-08-11T03:58:42;101978.97;;;15.90;70.43
68594;BME280;55563;52.416;13.548;2022-08-11T04:00:57;101976.59;;;15.93;70.30
68594;BME280;55563;52.416;13.548;2022-08-11T04:03:46;101974.50;;;16.00;69.78
68594;BME280;55563;52.416;13.548;2022-08-11T04:13:44;101969.19;;;15.95;69.85
68594;BME280;55563;52.416;13.548;2022-08-11T04:16:00;101973.69;;;15.95;69.67
68594;BME280;55563;52.416;13.548;2022-08-11T04:28:59;101975.50;;;18.10;62.67
68594;BME280;55563;52.416;13.548;2022-08-11T04:31:26;101984.13;;;18.75;59.95
68594;BME280;55563;52.416;13.548;2022-08-11T04:37:09;101984.97;;;20.32;55.74
68594;BME280;55563;52.416;13.548;2022-08-11T04:39:15;101970.34;;;20.62;53.82
68594;BME280;55563;52.416;13.548;2022-08-11T04:42:24;101982.50;;;21.00;53.21
68594;BME280;55563;52.416;13.548;2022-08-11T04:49:50;101989.38;;;20.87;52.94
68594;BME280;55563;52.416;13.548;2022-08-11T05:03:45;101983.75;;;22.65;47.82
68594;BME280;55563;52.416;13.548;2022-08-11T05:06:08;101990.94;;;24.31;44.78
68594;BME280;55563;52.416;13.548;2022-08-11T05:08:45;101987.22;;;23.75;46.20
68594;BME280;55563;52.416;13.548;2022-08-11T05:11:02;101992.47;;;24.15;44.83
68594;BME280;55563;52.416;13.548;2022-08-11T05:13:08;101992.16;;;24.51;43.90
68594;BME280;55563;52.416;13.548;2022-08-11T05:15:40;101988.78;;;24.88;43.24
68594;BME280;55563;52.416;13.548;2022-08-11T05:18:13;101991.84;;;24.09;44.60
68594;BME280;55563;52.416;13.548;2022-08-11T05:20:42;101989.78;;;24.15;44.30
68594;BME280;55563;52.416;13.548;2022-08-11T05:23:07;101992.44;;;23.80;44.80
68594;BME280;55563;52.416;13.548;2022-08-11T05:25:31;102001.19;;;24.38;44.54
68594;BME280;55563;52.416;13.548;2022-08-11T05:28:14;102000.00;;;23.70;45.73
68594;BME280;55563;52.416;13.548;2022-08-11T05:30:39;102003.22;;;25.42;41.67
68594;BME280;55563;52.416;13.548;2022-08-11T05:33:05;102006.84;;;25.55;41.52
68594;BME280;55563;52.416;13.548;2022-08-11T05:35:34;101996.97;;;25.88;41.28
68594;BME280;55563;52.416;13.548;2022-08-11T05:37:43;102005.03;;;26.30;40.24
68594;BME280;55563;52.416;13.548;2022-08-11T05:40:10;102007.25;;;26.48;40.26
68594;BME280;55563;52.416;13.548;2022-08-11T05:42:32;102000.66;;;25.25;41.75
68594;BME280;55563;52.416;13.548;2022-08-11T05:44:59;102007.75;;;25.30;41.34
68594;BME280;55563;52.416;13.548;2022-08-11T05:47:23;102007.09;;;26.78;39.21
68594;BME280;55563;52.416;13.548;2022-08-11T05:49:48;102012.78;;;24.85;42.72
68594;BME280;55563;52.416;13.548;2022-08-11T05:52:14;102006.59;;;25.01;42.90
68594;BME280;55563;52.416;13.548;2022-08-11T05:54:36;102014.09;;;26.04;40.58
68594;BME280;55563;52.416;13.548;2022-08-11T05:56:59;102012.91;;;26.14;40.96
68594;BME280;55563;52.416;13.548;2022-08-11T05:59:01;102015.94;;;25.33;41.82
68594;BME280;55563;52.416;13.548;2022-08-11T06:01:03;102016.59;;;24.75;43.10
68594;BME280;55563;52.416;13.548;2022-08-11T06:03:04;102016.28;;;27.34;38.64
68594;BME280;55563;52.416;13.548;2022-08-11T06:05:07;102031.63;;;26.85;39.07
68594;BME280;55563;52.416;13.548;2022-08-11T06:07:10;102018.75;;;27.15;38.19
68594;BME280;55563;52.416;13.548;2022-08-11T06:09:12;102026.06;;;26.90;38.23
68594;BME280;55563;52.416;13.548;2022-08-11T06:11:15;102019.75;;;24.94;41.88
68594;BME280;55563;52.416;13.548;2022-08-11T06:13:17;102028.88;;;26.94;39.46
68594;BME280;55563;52.416;13.548;2022-08-11T06:15:18;102029.41;;;26.54;38.25
68594;BME280;55563;52.416;13.548;2022-08-11T06:17:23;102033.16;;;27.31;37.60
68594;BME280;55563;52.416;13.548;2022-08-11T06:19:32;102028.47;;;28.04;37.10
68594;BME280;55563;52.416;13.548;2022-08-11T06:21:34;102031.56;;;27.91;36.99
68594;BME280;55563;52.416;13.548;2022-08-11T06:23:35;102043.72;;;29.12;34.73
68594;BME280;55563;52.416;13.548;2022-08-11T06:25:37;102038.78;;;29.64;34.21
68594;BME280;55563;52.416;13.548;2022-08-11T06:27:41;102033.00;;;29.46;33.37
68594;BME280;55563;52.416;13.548;2022-08-11T06:29:48;102036.84;;;25.95;38.80
68594;BME280;55563;52.416;13.548;2022-08-11T06:31:53;102027.19;;;27.86;36.59
68594;BME280;55563;52.416;13.548;2022-08-11T06:36:34;102024.53;;;28.02;35.30
68594;BME280;55563;52.416;13.548;2022-08-11T06:41:18;102026.75;;;29.62;33.86
68594;BME280;55563;52.416;13.548;2022-08-11T06:43:52;102037.16;;;30.33;33.00
68594;BME280;55563;52.416;13.548;2022-08-11T06:45:59;102017.44;;;31.01;31.93
68594;BME280;55563;52.416;13.548;2022-08-11T06:48:05;102029.94;;;30.41;31.90
68594;BME280;55563;52.416;13.548;2022-08-11T06:50:06;102019.91;;;28.14;34.90
68594;BME280;55563;52.416;13.548;2022-08-11T06:52:31;102028.13;;;29.05;33.99
68594;BME280;55563;52.416;13.548;2022-08-11T06:54:36;102025.06;;;28.91;33.46
68594;BME280;55563;52.416;13.548;2022-08-11T06:56:40;102024.38;;;28.23;35.20
68594;BME280;55563;52.416;13.548;2022-08-11T06:59:01;102018.47;;;29.74;33.86
68594;BME280;55563;52.416;13.548;2022-08-11T07:01:36;102026.91;;;30.65;32.96
68594;BME280;55563;52.416;13.548;2022-08-11T07:03:51;102013.69;;;33.57;28.81
68594;BME280;55563;52.416;13.548;2022-08-11T07:06:07;102023.25;;;30.54;32.14
68594;BME280;55563;52.416;13.548;2022-08-11T07:11:06;102008.41;;;28.61;36.07
68594;BME280;55563;52.416;13.548;2022-08-11T07:13:26;102015.53;;;31.01;31.38
68594;BME280;55563;52.416;13.548;2022-08-11T07:15:50;102013.47;;;28.07;35.16
68594;BME280;55563;52.416;13.548;2022-08-11T07:17:52;102013.25;;;32.16;31.11
68594;BME280;55563;52.416;13.548;2022-08-11T07:20:17;102000.44;;;33.01;29.76
68594;BME280;55563;52.416;13.548;2022-08-11T07:22:38;102008.81;;;33.98;27.90
68594;BME280;55563;52.416;13.548;2022-08-11T07:25:06;102006.66;;;29.82;32.19
68594;BME280;55563;52.416;13.548;2022-08-11T07:27:36;102004.81;;;28.01;35.49
68594;BME280;55563;52.416;13.548;2022-08-11T07:30:05;102009.19;;;29.56;33.34
68594;BME280;55563;52.416;13.548;2022-08-11T07:32:14;102002.41;;;30.00;33.09
68594;BME280;55563;52.416;13.548;2022-08-11T07:34:31;101995.28;;;30.11;32.59
68594;BME280;55563;52.416;13.548;2022-08-11T07:36:38;101991.25;;;31.65;30.53
68594;BME280;55563;52.416;13.548;2022-08-11T07:38:43;102002.78;;;31.84;30.44
68594;BME280;55563;52.416;13.548;2022-08-11T07:40:46;101994.50;;;32.84;28.35
68594;BME280;55563;52.416;13.548;2022-08-11T07:42:47;102003.16;;;33.01;29.62
68594;BME280;55563;52.416;13.548;2022-08-11T07:44:49;101991.56;;;33.72;28.13
68594;BME280;55563;52.416;13.548;2022-08-11T07:47:12;101994.00;;;31.68;29.04
68594;BME280;55563;52.416;13.548;2022-08-11T07:49:36;102002.19;;;34.02;27.76
68594;BME280;55563;52.416;13.548;2022-08-11T07:51:57;101994.75;;;33.20;28.79
68594;BME280;55563;52.416;13.548;2022-08-11T07:54:18;101998.50;;;32.57;29.03
68594;BME280;55563;52.416;13.548;2022-08-11T07:56:19;101993.75;;;31.24;32.47
68594;BME280;55563;52.416;13.548;2022-08-11T07:58:21;101997.72;;;31.04;31.90
68594;BME280;55563;52.416;13.548;2022-08-11T08:00:45;101998.50;;;30.82;31.76
68594;BME280;55563;52.416;13.548;2022-08-11T08:03:07;101990.94;;;28.43;34.60
68594;BME280;55563;52.416;13.548;2022-08-11T08:05:28;101994.16;;;29.58;34.83
68594;BME280;55563;52.416;13.548;2022-08-11T08:07:49;101988.78;;;31.56;31.36
68594;BME280;55563;52.416;13.548;2022-08-11T08:10:10;101998.38;;;30.97;32.55
68594;BME280;55563;52.416;13.548;2022-08-11T08:12:31;101999.88;;;30.95;32.68
68594;BME280;55563;52.416;13.548;2022-08-11T08:14:54;101992.25;;;30.55;33.99
68594;BME280;55563;52.416;13.548;2022-08-11T08:17:15;101991.63;;;30.88;32.83
68594;BME280;55563;52.416;13.548;2022-08-11T08:19:36;101988.56;;;28.41;34.06
68594;BME280;55563;52.416;13.548;2022-08-11T08:21:38;101993.69;;;29.37;32.93
68594;BME280;55563;52.416;13.548;2022-08-11T08:23:41;101983.53;;;29.50;32.65
68594;BME280;55563;52.416;13.548;2022-08-11T08:25:43;101987.91;;;27.40;35.78
68594;BME280;55563;52.416;13.548;2022-08-11T08:27:44;101984.41;;;28.59;34.12
68594;BME280;55563;52.416;13.548;2022-08-11T08:29:46;101988.50;;;29.48;33.51
68594;BME280;55563;52.416;13.548;2022-08-11T08:32:07;101983.31;;;29.58;33.36
68594;BME280;55563;52.416;13.548;2022-08-11T08:34:11;101977.00;;;29.19;32.88
68594;BME280;55563;52.416;13.548;2022-08-11T08:36:13;101981.44;;;28.65;33.70
68594;BME280;55563;52.416;13.548;2022-08-11T08:38:16;101983.88;;;28.54;35.07
68594;BME280;55563;52.416;13.548;2022-08-11T08:40:17;101990.56;;;28.29;34.64
68594;BME280;55563;52.416;13.548;2022-08-11T08:42:23;101980.38;;;27.98;35.51
68594;BME280;55563;52.416;13.548;2022-08-11T08:44:26;101984.41;;;27.64;35.93
68594;BME280;55563;52.416;13.548;2022-08-11T08:46:34;101980.63;;;28.33;34.26
68594;BME280;55563;52.416;13.548;2022-08-11T08:48:36;101974.91;;;28.97;33.28
68594;BME280;55563;52.416;13.548;2022-08-11T08:50:43;101982.44;;;29.89;33.69
68594;BME280;55563;52.416;13.548;2022-08-11T08:53:05;101981.25;;;28.42;34.88
68594;BME280;55563;52.416;13.548;2022-08-11T08:55:11;101983.09;;;29.48;33.86
68594;BME280;55563;52.416;13.548;2022-08-11T08:57:16;101983.44;;;28.52;34.26
68594;BME280;55563;52.416;13.548;2022-08-11T08:59:21;101983.00;;;29.28;33.93
68594;BME280;55563;52.416;13.548;2022-08-11T09:01:24;101972.53;;;28.48;33.20
68594;BME280;55563;52.416;13.548;2022-08-11T09:03:28;101972.72;;;29.34;34.22
68594;BME280;55563;52.416;13.548;2022-08-11T09:05:29;101962.59;;;28.99;32.36
68594;BME280;55563;52.416;13.548;2022-08-11T09:07:31;101965.09;;;28.45;33.58
68594;BME280;55563;52.416;13.548;2022-08-11T09:09:32;101963.81;;;28.71;33.21
68594;BME280;55563;52.416;13.548;2022-08-11T09:11:35;101962.97;;;27.95;33.67
68594;BME280;55563;52.416;13.548;2022-08-11T09:13:57;101966.31;;;28.32;33.51
68594;BME280;55563;52.416;13.548;2022-08-11T09:15:58;101962.88;;;28.63;32.93
68594;BME280;55563;52.416;13.548;2022-08-11T09:18:00;101963.81;;;28.11;33.52
68594;BME280;55563;52.416;13.548;2022-08-11T09:20:08;101964.31;;;28.60;33.44
68594;BME280;55563;52.416;13.548;2022-08-11T09:22:09;101961.34;;;29.28;33.65
68594;BME280;55563;52.416;13.548;2022-08-11T09:24:30;101962.22;;;28.10;33.10
68594;BME280;55563;52.416;13.548;2022-08-11T09:26:51;101959.41;;;27.79;33.34
68594;BME280;55563;52.416;13.548;2022-08-11T09:29:00;101968.22;;;28.91;34.38
68594;BME280;55563;52.416;13.548;2022-08-11T09:31:01;101966.38;;;30.00;32.97
68594;BME280;55563;52.416;13.548;2022-08-11T09:33:03;101958.72;;;29.32;32.01
68594;BME280;55563;52.416;13.548;2022-08-11T09:35:04;101956.25;;;28.76;32.93
68594;BME280;55563;52.416;13.548;2022-08-11T09:37:07;101957.91;;;28.22;33.91
68594;BME280;55563;52.416;13.548;2022-08-11T09:39:29;101951.56;;;29.39;33.69
68594;BME280;55563;52.416;13.548;2022-08-11T09:41:50;101952.28;;;29.56;33.63
68594;BME280;55563;52.416;13.548;2022-08-11T09:43:51;101947.34;;;28.91;32.48
68594;BME280;55563;52.416;13.548;2022-08-11T09:46:13;101942.78;;;28.21;33.27
68594;BME280;55563;52.416;13.548;2022-08-11T09:48:15;101947.03;;;29.12;32.74
68594;BME280;55563;52.416;13.548;2022-08-11T09:50:18;101940.59;;;29.01;31.77
68594;BME280;55563;52.416;13.548;2022-08-11T09:52:20;101945.38;;;28.45;32.38
68594;BME280;55563;52.416;13.548;2022-08-11T09:54:23;101941.53;;;28.46;33.00
68594;BME280;55563;52.416;13.548;2022-08-11T09:56:25;101939.44;;;28.39;33.77
68594;BME280;55563;52.416;13.548;2022-08-11T09:58:47;101940.63;;;27.98;32.85
68594;BME280;55563;52.416;13.548;2022-08-11T10:00:50;101930.84;;;29.31;33.55
68594;BME280;55563;52.416;13.548;2022-08-11T10:02:51;101923.69;;;29.23;31.60
68594;BME280;55563;52.416;13.548;2022-08-11T10:04:56;101934.78;;;29.34;31.03
68594;BME280;55563;52.416;13.548;2022-08-11T10:07:18;101935.59;;;29.19;31.43
68594;BME280;55563;52.416;13.548;2022-08-11T10:09:20;101923.56;;;28.38;32.10
68594;BME280;55563;52.416;13.548;2022-08-11T10:11:23;101928.31;;;28.72;32.34
68594;BME280;55563;52.416;13.548;2022-08-11T10:13:29;101925.09;;;28.23;32.64
68594;BME280;55563;52.416;13.548;2022-08-11T10:15:35;101932.66;;;28.92;32.47
68594;BME280;55563;52.416;13.548;2022-08-11T10:17:41;101922.94;;;29.96;32.51
68594;BME280;55563;52.416;13.548;2022-08-11T10:20:02;101911.88;;;30.99;30.66
68594;BME280;55563;52.416;13.548;2022-08-11T10:22:05;101924.50;;;29.78;30.19
68594;BME280;55563;52.416;13.548;2022-08-11T10:27:27;101916.84;;;28.94;32.56
68594;BME280;55563;52.416;13.548;2022-08-11T10:29:31;101908.34;;;27.62;32.68
68594;BME280;55563;52.416;13.548;2022-08-11T10:31:54;101912.88;;;28.73;33.81
68594;BME280;55563;52.416;13.548;2022-08-11T10:34:35;101914.91;;;30.03;32.84
68594;BME280;55563;52.416;13.548;2022-08-11T10:36:40;101903.28;;;29.83;33.00
68594;BME280;55563;52.416;13.548;2022-08-11T10:38:45;101906.44;;;30.27;31.80
68594;BME280;55563;52.416;13.548;2022-08-11T10:40:53;101895.94;;;30.03;30.85
68594;BME280;55563;52.416;13.548;2022-08-11T10:43:14;101901.44;;;29.14;31.38
68594;BME280;55563;52.416;13.548;2022-08-11T10:45:16;101887.97;;;29.18;31.15
68594;BME280;55563;52.416;13.548;2022-08-11T10:47:37;101900.16;;;29.27;30.51
68594;BME280;55563;52.416;13.548;2022-08-11T10:49:38;101892.31;;;29.22;31.31
68594;BME280;55563;52.416;13.548;2022-08-11T10:51:40;101886.19;;;29.06;31.02
68594;BME280;55563;52.416;13.548;2022-08-11T10:54:01;101889.59;;;29.38;31.90
68594;BME280;55563;52.416;13.548;2022-08-11T10:56:22;101878.78;;;28.87;30.70
68594;BME280;55563;52.416;13.548;2022-08-11T10:58:43;101889.91;;;30.36;30.71
68594;BME280;55563;52.416;13.548;2022-08-11T11:00:51;101878.03;;;28.71;30.82
68594;BME280;55563;52.416;13.548;2022-08-11T11:02:56;101875.22;;;29.18;30.80
68594;BME280;55563;52.416;13.548;2022-08-11T11:05:22;101876.41;;;28.70;31.26
68594;BME280;55563;52.416;13.548;2022-08-11T11:07:35;101874.09;;;28.37;31.25
68594;BME280;55563;52.416;13.548;2022-08-11T11:09:44;101875.63;;;29.55;31.73
68594;BME280;55563;52.416;13.548;2022-08-11T11:11:56;101869.19;;;29.25;30.39
68594;BME280;55563;52.416;13.548;2022-08-11T11:14:18;101861.09;;;30.28;31.84
68594;BME280;55563;52.416;13.548;2022-08-11T11:16:40;101869.50;;;29.39;31.02
68594;BME280;55563;52.416;13.548;2022-08-11T11:19:04;101866.81;;;29.81;30.58
68594;BME280;55563;52.416;13.548;2022-08-11T11:21:10;101874.97;;;30.00;31.04
68594;BME280;55563;52.416;13.548;2022-08-11T11:25:35;101859.69;;;28.49;30.90
68594;BME280;55563;52.416;13.548;2022-08-11T11:30:09;101860.31;;;29.43;29.84
68594;BME280;55563;52.416;13.548;2022-08-11T11:32:36;101855.66;;;29.44;29.60
68594;BME280;55563;52.416;13.548;2022-08-11T11:35:48;101853.94;;;29.55;30.24
68594;BME280;55563;52.416;13.548;2022-08-11T11:37:22;101858.34;;;28.90;31.21
68594;BME280;55563;52.416;13.548;2022-08-11T11:39:25;101845.81;;;28.35;31.16
68594;BME280;55563;52.416;13.548;2022-08-11T11:41:27;101847.84;;;29.04;31.35
68594;BME280;55563;52.416;13.548;2022-08-11T11:43:28;101843.38;;;29.50;31.13
68594;BME280;55563;52.416;13.548;2022-08-11T11:45:29;101837.31;;;29.76;29.92
68594;BME280;55563;52.416;13.548;2022-08-11T11:47:31;101849.47;;;30.05;29.65
68594;BME280;55563;52.416;13.548;2022-08-11T11:49:33;101847.97;;;29.88;29.93
68594;BME280;55563;52.416;13.548;2022-08-11T11:51:39;101844.03;;;29.63;29.67
68594;BME280;55563;52.416;13.548;2022-08-11T11:53:41;101838.34;;;28.94;29.92
68594;BME280;55563;52.416;13.548;2022-08-11T11:55:44;101843.78;;;29.14;31.37
68594;BME280;55563;52.416;13.548;2022-08-11T11:57:45;101840.63;;;30.30;30.19
68594;BME280;55563;52.416;13.548;2022-08-11T12:00:08;101835.47;;;29.61;29.58
68594;BME280;55563;52.416;13.548;2022-08-11T12:02:30;101830.13;;;29.45;29.02
68594;BME280;55563;52.416;13.548;2022-08-11T12:04:31;101828.06;;;29.58;29.71
68594;BME280;55563;52.416;13.548;2022-08-11T12:06:32;101830.97;;;30.10;30.68
68594;BME280;55563;52.416;13.548;2022-08-11T12:08:33;101829.06;;;30.11;29.68
68594;BME280;55563;52.416;13.548;2022-08-11T12:10:37;101819.94;;;29.58;28.55
68594;BME280;55563;52.416;13.548;2022-08-11T12:12:38;101822.00;;;29.45;28.54
68594;BME280;55563;52.416;13.548;2022-08-11T12:14:59;101810.47;;;29.48;29.11
68594;BME280;55563;52.416;13.548;2022-08-11T12:17:01;101818.41;;;29.60;29.36
68594;BME280;55563;52.416;13.548;2022-08-11T12:19:05;101805.66;;;29.83;29.06
68594;BME280;55563;52.416;13.548;2022-08-11T12:21:07;101807.97;;;29.59;30.02
68594;BME280;55563;52.416;13.548;2022-08-11T12:23:08;101812.28;;;30.05;29.21
68594;BME280;55563;52.416;13.548;2022-08-11T12:25:29;101800.16;;;29.99;30.04
68594;BME280;55563;52.416;13.548;2022-08-11T12:27:52;101806.28;;;29.93;29.24
68594;BME280;55563;52.416;13.548;2022-08-11T12:30:00;101801.78;;;30.04;27.97
68594;BME280;55563;52.416;13.548;2022-08-11T12:32:06;101802.25;;;29.06;28.58
68594;BME280;55563;52.416;13.548;2022-08-11T12:34:10;101799.16;;;29.08;28.98
68594;BME280;55563;52.416;13.548;2022-08-11T12:36:13;101803.09;;;28.75;27.95
68594;BME280;55563;52.416;13.548;2022-08-11T12:38:16;101806.06;;;29.82;28.06
68594;BME280;55563;52.416;13.548;2022-08-11T12:40:23;101795.53;;;29.19;27.79
68594;BME280;55563;52.416;13.548;2022-08-11T12:42:46;101791.25;;;30.21;28.18
68594;BME280;55563;52.416;13.548;2022-08-11T12:45:10;101790.31;;;29.68;28.21
68594;BME280;55563;52.416;13.548;2022-08-11T12:47:27;101786.56;;;29.54;29.05
68594;BME280;55563;52.416;13.548;2022-08-11T12:49:50;101783.78;;;29.31;27.34
68594;BME280;55563;52.416;13.548;2022-08-11T12:52:20;101772.09;;;29.08;27.71
68594;BME280;55563;52.416;13.548;2022-08-11T12:54:28;101774.25;;;29.37;28.07
68594;BME280;55563;52.416;13.548;2022-08-11T12:56:36;101766.75;;;29.50;27.93
68594;BME280;55563;52.416;13.548;2022-08-11T12:58:58;101768.56;;;29.65;27.10
68594;BME280;55563;52.416;13.548;2022-08-11T13:01:20;101765.53;;;29.09;27.13
68594;BME280;55563;52.416;13.548;2022-08-11T13:03:41;101763.25;;;29.49;28.47
68594;BME280;55563;52.416;13.548;2022-08-11T13:06:03;101757.44;;;30.15;28.31
68594;BME280;55563;52.416;13.548;2022-08-11T13:08:05;101754.63;;;29.05;26.81
68594;BME280;55563;52.416;13.548;2022-08-11T13:10:09;101748.63;;;29.54;27.06
68594;BME280;55563;52.416;13.548;2022-08-11T13:12:11;101756.53;;;29.85;27.88
68594;BME280;55563;52.416;13.548;2022-08-11T13:14:32;101751.63;;;29.29;26.21
68594;BME280;55563;52.416;13.548;2022-08-11T13:16:34;101747.59;;;29.84;27.89
68594;BME280;55563;52.416;13.548;2022-08-11T13:18:57;101752.75;;;29.89;26.91
68594;BME280;55563;52.416;13.548;2022-08-11T13:21:00;101748.75;;;29.61;26.50
68594;BME280;55563;52.416;13.548;2022-08-11T13:23:02;101751.28;;;29.31;26.72
68594;BME280;55563;52.416;13.548;2022-08-11T13:25:03;101748.22;;;29.13;26.14
68594;BME280;55563;52.416;13.548;2022-08-11T13:27:05;101753.25;;;29.30;26.75
68594;BME280;55563;52.416;13.548;2022-08-11T13:29:06;101748.38;;;29.01;25.98
68594;BME280;55563;52.416;13.548;2022-08-11T13:31:07;101745.19;;;28.45;26.12
68594;BME280;55563;52.416;13.548;2022-08-11T13:33:11;101738.59;;;28.96;25.95